createdAt,value
2023-02-14T00:14:55.038Z,88.0
2023-02-14T00:19:17.942Z,88.0
2023-02-14T00:33:18.122Z,89.0
2023-02-14T00:47:17.995Z,90.0
2023-02-14T00:56:46.604Z,90.0
2023-02-14T01:11:30.145Z,88.0
2023-02-14T01:37:29.374Z,88.0
2023-02-14T01:53:34.264Z,89.0
2023-02-14T02:16:33.383Z,90.0
2023-02-14T02:20:31.129Z,89.0
2023-02-14T02:32:30.390Z,90.0
2023-02-14T02:41:38.311Z,90.0
2023-02-14T02:54:22.076Z,89.0
2023-02-14T03:06:00.309Z,90.0
2023-02-14T03:21:38.812Z,87.0
2023-02-14T03:26:36.188Z,82.0
2023-02-14T03:44:02.993Z,72.0
2023-02-14T03:51:28.444Z,71.0
2023-02-14T04:04:12.333Z,75.0
2023-02-14T04:16:57.296Z,82.0
2023-02-14T04:20:28.909Z,83.0
2023-02-14T04:34:29.489Z,83.0
2023-02-14T04:48:29.504Z,84.0
2023-02-14T04:53:10.837Z,84.0
2023-02-14T05:10:19.086Z,85.0
2023-02-14T05:17:57.132Z,85.0
2023-02-14T05:31:03.079Z,87.0
2023-02-14T05:45:02.498Z,88.0
2023-02-14T05:53:57.569Z,87.0
2023-02-14T05:59:19.650Z,87.0
2023-02-14T06:03:45.119Z,88.0
2023-02-14T06:23:37.529Z,90.0
2023-02-14T06:36:36.253Z,89.0
2023-02-14T06:51:15.834Z,89.0
2023-02-14T06:58:21.735Z,90.0
2023-02-14T07:07:31.887Z,90.0
2023-02-14T07:11:56.892Z,89.0
2023-02-14T07:26:57.023Z,87.0
2023-02-14T07:41:56.996Z,88.0
2023-02-14T07:49:36.240Z,86.0
2023-02-14T08:04:36.200Z,79.0
2023-02-14T08:12:16.994Z,72.0
2023-02-14T08:27:17.001Z,63.0
2023-02-14T08:48:44.869Z,58.0
2023-02-14T09:03:43.987Z,58.0
2023-02-14T09:18:43.959Z,57.0
2023-02-14T09:27:10.287Z,55.0
2023-02-14T09:37:36.291Z,54.0
2023-02-14T09:48:28.194Z,55.0
2023-02-14T09:54:57.751Z,54.0
2023-02-14T10:09:57.579Z,51.0
2023-02-14T10:17:30.118Z,51.0
2023-02-14T10:27:18.022Z,49.0
2023-02-14T10:48:06.447Z,49.0
2023-02-14T11:03:06.617Z,51.0
2023-02-14T11:06:02.876Z,51.0
2023-02-14T11:21:02.782Z,51.0
2023-02-14T11:32:17.403Z,49.0
2023-02-14T11:38:10.316Z,49.0
2023-02-14T11:50:01.643Z,48.0
2023-02-14T11:56:17.795Z,48.0
2023-02-14T12:06:04.968Z,48.0
2023-02-14T12:21:04.914Z,48.0
2023-02-14T12:36:04.904Z,48.0
2023-02-14T12:52:09.997Z,47.0
2023-02-14T13:08:37.750Z,47.0
2023-02-14T13:23:36.397Z,45.0
2023-02-14T13:29:19.124Z,45.0
2023-02-14T13:48:30.738Z,45.0
2023-02-14T14:07:22.705Z,44.0
2023-02-14T14:27:29.209Z,44.0
2023-02-14T14:42:29.284Z,45.0
2023-02-14T14:52:49.228Z,44.0
2023-02-14T15:00:04.026Z,44.0
2023-02-14T15:15:04.057Z,46.0
2023-02-14T15:22:13.599Z,47.0
2023-02-14T15:38:31.272Z,48.0
2023-02-14T15:43:14.517Z,49.0
2023-02-14T15:52:25.720Z,50.0
2023-02-14T16:00:27.909Z,51.0
2023-02-14T16:15:28.281Z,58.0
2023-02-14T16:27:33.482Z,66.0
2023-02-14T16:42:42.645Z,72.0
2023-02-14T16:50:03.713Z,74.0
2023-02-14T16:59:23.078Z,75.0
2023-02-14T17:09:42.571Z,76.0
2023-02-14T17:24:08.764Z,77.0
2023-02-14T17:38:09.099Z,80.0
2023-02-14T17:54:13.294Z,82.0
2023-02-14T18:03:40.746Z,83.0
2023-02-14T18:14:09.806Z,84.0
2023-02-14T18:25:15.095Z,84.0
2023-02-14T18:30:15.819Z,85.0
2023-02-14T18:37:38.372Z,85.0
2023-02-14T18:44:55.904Z,86.0
2023-02-14T18:49:31.126Z,86.0
2023-02-14T18:57:05.367Z,87.0
2023-02-14T19:12:14.501Z,87.0
2023-02-14T19:17:44.359Z,87.0
2023-02-14T19:26:27.550Z,87.0
2023-02-14T19:31:09.175Z,88.0
2023-02-14T19:45:25.344Z,87.0
2023-02-14T20:01:29.292Z,86.0
2023-02-14T20:10:28.384Z,87.0
2023-02-14T20:22:57.720Z,86.0
2023-02-14T20:31:16.230Z,87.0
2023-02-14T20:45:16.789Z,87.0
2023-02-14T21:14:37.483Z,89.0
2023-02-14T21:23:35.824Z,88.0
2023-02-14T21:33:10.862Z,88.0
2023-02-14T21:47:10.822Z,89.0
2023-02-14T21:51:51.954Z,88.0
2023-02-14T22:10:02.320Z,89.0
2023-02-14T22:13:38.167Z,89.0
2023-02-14T22:27:20.779Z,90.0
2023-02-14T22:44:35.815Z,90.0
2023-02-14T22:58:39.493Z,89.0
2023-02-14T23:12:39.696Z,89.0
2023-02-14T23:32:41.409Z,87.0
2023-02-14T23:46:41.430Z,87.0
